PWSweather.com
Personal Weather Stations
Station Observations
CAPEBRETON
Mira Road, Sydney, NS

Mira RoadSydney, NS

Lat: 46.1207292, Lon: -60.1594642

Elevation: 175

Station Type: LaCrosse Weather Pro Center 2800 Series

http://pwscapebreton.weebly.com/

Latest ConditionsUpdated 8:18:03 AM GMT-04:56 Tuesday, Jan 27, 2015
Currently Today's Max Today's Min Today's Average
Temperature 22.0°F-5.6°C 22.0°F-5.6°C 5.4°F-14.8°C 14.3°F-9.8°C
Dew Point 17.0°F-8.3°C 17.0°F-8.3°C 0.5°F-17.5°C 9.5°F-12.5°C
Winds 4.6 mph ENE7.4 kmh ENE 5.5 mph ESE8.9 kmh ESE - 1.7 mph 2.7 kmh
Wind Gusts 10.3 mph16.6 kmh 10.3 mph16.6 kmh - -
Humidity 81% 85% 77% 81%
Pressure 30.20 in1022.7 mb 30.40 in1029.5 mb 30.20 in1022.7 mb -
Hour Temp Dew Point Humidity Winds Wind Gusts Pressure Precip Precip Rate Daily Precip Total
08:18 AM 22.0°F-5.6°C 17.0°F-8.3°C 81% 4.6 mph ENE7.4 kmh ENE 10.3 mph16.6 kmh 30.20 in1022.7 mb 0.00 in0.0 mm 0.00 in/hr0.0 mm/hr 0.00 in0.0 mm
08:13 AM 22.0°F-5.6°C 17.0°F-8.3°C 81% 4.0 mph SE6.4 kmh SE 9.6 mph15.4 kmh 30.20 in1022.7 mb 0.00 in0.0 mm 0.00 in/hr0.0 mm/hr 0.00 in0.0 mm
08:08 AM 22.0°F-5.6°C 17.0°F-8.3°C 81% 4.8 mph ENE7.7 kmh ENE 9.6 mph15.4 kmh 30.21 in1023.0 mb 0.00 in0.0 mm 0.00 in/hr0.0 mm/hr 0.00 in0.0 mm
08:03 AM 21.8°F-5.7°C 16.8°F-8.4°C 81% 4.5 mph ENE7.2 kmh ENE 8.5 mph13.7 kmh 30.20 in1022.7 mb 0.00 in0.0 mm 0.00 in/hr0.0 mm/hr 0.00 in0.0 mm
07:57 AM 21.6°F-5.8°C 16.7°F-8.5°C 81% 4.9 mph E7.9 kmh E 10.1 mph16.3 kmh 30.20 in1022.7 mb 0.00 in0.0 mm 0.00 in/hr0.0 mm/hr 0.00 in0.0 mm
07:53 AM 21.6°F-5.8°C 16.4°F-8.7°C 80% 4.3 mph E6.9 kmh E 10.1 mph16.3 kmh 30.21 in1023.0 mb 0.00 in0.0 mm 0.00 in/hr0.0 mm/hr 0.00 in0.0 mm
07:48 AM 21.4°F-5.9°C 16.2°F-8.8°C 80% 3.9 mph ENE6.3 kmh ENE 10.1 mph16.3 kmh 30.22 in1023.4 mb 0.00 in0.0 mm 0.00 in/hr0.0 mm/hr 0.00 in0.0 mm
07:47 AM 21.4°F-5.9°C 16.2°F-8.8°C 80% 3.6 mph ENE5.8 kmh ENE 10.1 mph16.3 kmh 30.22 in1023.4 mb 0.00 in0.0 mm 0.00 in/hr0.0 mm/hr 0.00 in0.0 mm
07:42 AM 21.4°F-5.9°C 16.2°F-8.8°C 80% 3.6 mph E5.8 kmh E 8.5 mph13.7 kmh 30.23 in1023.7 mb 0.00 in0.0 mm 0.00 in/hr0.0 mm/hr 0.00 in0.0 mm
07:37 AM 21.2°F-6.0°C 16.0°F-8.9°C 80% 4.2 mph ESE6.8 kmh ESE 8.5 mph13.7 kmh 30.25 in1024.4 mb 0.00 in0.0 mm 0.00 in/hr0.0 mm/hr 0.00 in0.0 mm
07:32 AM 21.2°F-6.0°C 16.0°F-8.9°C 80% 4.5 mph ESE7.2 kmh ESE 7.6 mph12.2 kmh 30.25 in1024.4 mb 0.00 in0.0 mm 0.00 in/hr0.0 mm/hr 0.00 in0.0 mm
07:27 AM 21.2°F-6.0°C 16.0°F-8.9°C 80% 3.5 mph NE5.6 kmh NE 7.6 mph12.2 kmh 30.26 in1024.7 mb 0.00 in0.0 mm 0.00 in/hr0.0 mm/hr 0.00 in0.0 mm
07:22 AM 21.2°F-6.0°C 16.0°F-8.9°C 80% 3.2 mph NE5.1 kmh NE 6.9 mph11.1 kmh 30.27 in1025.1 mb 0.00 in0.0 mm 0.00 in/hr0.0 mm/hr 0.00 in0.0 mm
07:17 AM 21.2°F-6.0°C 16.0°F-8.9°C 80% 4.0 mph ESE6.4 kmh ESE 6.9 mph11.1 kmh 30.27 in1025.1 mb 0.00 in0.0 mm 0.00 in/hr0.0 mm/hr 0.00 in0.0 mm
07:12 AM 21.2°F-6.0°C 16.0°F-8.9°C 80% 3.7 mph SSE6.0 kmh SSE 9.6 mph15.4 kmh 30.28 in1025.4 mb 0.00 in0.0 mm 0.00 in/hr0.0 mm/hr 0.00 in0.0 mm
07:07 AM 21.1°F-6.1°C 15.6°F-9.1°C 79% 2.3 mph SE3.7 kmh SE 9.6 mph15.4 kmh 30.29 in1025.7 mb 0.00 in0.0 mm 0.00 in/hr0.0 mm/hr 0.00 in0.0 mm
07:02 AM 21.1°F-6.1°C 15.6°F-9.1°C 79% 3.4 mph SE5.5 kmh SE 6.3 mph10.1 kmh 30.30 in1026.1 mb 0.00 in0.0 mm 0.00 in/hr0.0 mm/hr 0.00 in0.0 mm
06:57 AM 21.1°F-6.1°C 15.6°F-9.1°C 79% 3.8 mph NE6.1 kmh NE 5.8 mph9.3 kmh 30.30 in1026.1 mb 0.00 in0.0 mm 0.00 in/hr0.0 mm/hr 0.00 in0.0 mm
06:52 AM 21.1°F-6.1°C 15.6°F-9.1°C 79% 3.6 mph NE5.8 kmh NE 7.4 mph11.9 kmh 30.30 in1026.1 mb 0.00 in0.0 mm 0.00 in/hr0.0 mm/hr 0.00 in0.0 mm
06:47 AM 20.9°F-6.2°C 15.4°F-9.2°C 79% 2.7 mph E4.3 kmh E 7.4 mph11.9 kmh 30.30 in1026.1 mb 0.00 in0.0 mm 0.00 in/hr0.0 mm/hr 0.00 in0.0 mm
06:42 AM 20.9°F-6.2°C 15.0°F-9.4°C 78% 3.3 mph E5.3 kmh E 8.9 mph14.3 kmh 30.30 in1026.1 mb 0.00 in0.0 mm 0.00 in/hr0.0 mm/hr 0.00 in0.0 mm
06:37 AM 21.1°F-6.1°C 15.6°F-9.1°C 79% 3.3 mph E5.3 kmh E 8.9 mph14.3 kmh 30.31 in1026.4 mb 0.00 in0.0 mm 0.00 in/hr0.0 mm/hr 0.00 in0.0 mm
06:32 AM 20.9°F-6.2°C 15.0°F-9.4°C 78% 3.7 mph E6.0 kmh E 7.6 mph12.2 kmh 30.31 in1026.4 mb 0.00 in0.0 mm 0.00 in/hr0.0 mm/hr 0.00 in0.0 mm
06:27 AM 20.7°F-6.3°C 14.9°F-9.5°C 78% 3.1 mph SSE5.0 kmh SSE 7.2 mph11.6 kmh 30.32 in1026.8 mb 0.00 in0.0 mm 0.00 in/hr0.0 mm/hr 0.00 in0.0 mm
06:22 AM 20.7°F-6.3°C 14.9°F-9.5°C 78% 1.5 mph E2.4 kmh E 6.9 mph11.1 kmh 30.32 in1026.8 mb 0.00 in0.0 mm 0.00 in/hr0.0 mm/hr 0.00 in0.0 mm
06:17 AM 20.5°F-6.4°C 14.7°F-9.6°C 78% 4.8 mph ESE7.7 kmh ESE 6.9 mph11.1 kmh 30.32 in1026.8 mb 0.00 in0.0 mm 0.00 in/hr0.0 mm/hr 0.00 in0.0 mm
06:12 AM 20.5°F-6.4°C 14.4°F-9.8°C 77% 3.7 mph ESE6.0 kmh ESE 5.6 mph9.0 kmh 30.32 in1026.8 mb 0.00 in0.0 mm 0.00 in/hr0.0 mm/hr 0.00 in0.0 mm
06:07 AM 20.3°F-6.5°C 14.2°F-9.9°C 77% 3.7 mph NNE6.0 kmh NNE 7.8 mph12.6 kmh 30.30 in1026.1 mb 0.00 in0.0 mm 0.00 in/hr0.0 mm/hr 0.00 in0.0 mm
06:02 AM 20.2°F-6.6°C 14.1°F-9.9°C 77% 4.1 mph E6.6 kmh E 8.3 mph13.4 kmh 30.30 in1026.1 mb 0.00 in0.0 mm 0.00 in/hr0.0 mm/hr 0.00 in0.0 mm
05:57 AM 20.0°F-6.7°C 13.9°F-10.1°C 77% 3.8 mph E6.1 kmh E 8.3 mph13.4 kmh 30.30 in1026.1 mb 0.00 in0.0 mm 0.00 in/hr0.0 mm/hr 0.00 in0.0 mm
05:52 AM 19.8°F-6.8°C 14.0°F-10.0°C 78% 2.8 mph E4.5 kmh E 7.2 mph11.6 kmh 30.31 in1026.4 mb 0.00 in0.0 mm 0.00 in/hr0.0 mm/hr 0.00 in0.0 mm
05:47 AM 19.8°F-6.8°C 13.7°F-10.2°C 77% 5.5 mph ESE8.9 kmh ESE 6.9 mph11.1 kmh 30.31 in1026.4 mb 0.00 in0.0 mm 0.00 in/hr0.0 mm/hr 0.00 in0.0 mm
05:42 AM 19.6°F-6.9°C 13.8°F-10.1°C 78% 4.0 mph E6.4 kmh E 7.2 mph11.6 kmh 30.30 in1026.1 mb 0.00 in0.0 mm 0.00 in/hr0.0 mm/hr 0.00 in0.0 mm
05:37 AM 19.4°F-7.0°C 13.6°F-10.2°C 78% 3.2 mph E5.1 kmh E 7.2 mph11.6 kmh 30.30 in1026.1 mb 0.00 in0.0 mm 0.00 in/hr0.0 mm/hr 0.00 in0.0 mm
05:32 AM 19.3°F-7.1°C 13.4°F-10.3°C 78% 2.9 mph ENE4.7 kmh ENE 5.8 mph9.3 kmh 30.30 in1026.1 mb 0.00 in0.0 mm 0.00 in/hr0.0 mm/hr 0.00 in0.0 mm
05:27 AM 19.1°F-7.2°C 13.0°F-10.6°C 77% 3.2 mph ENE5.1 kmh ENE 5.8 mph9.3 kmh 30.31 in1026.4 mb 0.00 in0.0 mm 0.00 in/hr0.0 mm/hr 0.00 in0.0 mm
05:22 AM 19.1°F-7.2°C 13.0°F-10.6°C 77% 2.5 mph NE4.0 kmh NE 5.8 mph9.3 kmh 30.30 in1026.1 mb 0.00 in0.0 mm 0.00 in/hr0.0 mm/hr 0.00 in0.0 mm
05:17 AM 18.9°F-7.3°C 13.1°F-10.5°C 78% 1.2 mph NE1.9 kmh NE 4.9 mph7.9 kmh 30.30 in1026.1 mb 0.00 in0.0 mm 0.00 in/hr0.0 mm/hr 0.00 in0.0 mm
05:12 AM 18.7°F-7.4°C 12.9°F-10.6°C 78% 2.1 mph ESE3.4 kmh ESE 4.7 mph7.6 kmh 30.30 in1026.1 mb 0.00 in0.0 mm 0.00 in/hr0.0 mm/hr 0.00 in0.0 mm
05:07 AM 18.7°F-7.4°C 12.9°F-10.6°C 78% 2.2 mph NE3.5 kmh NE 4.0 mph6.4 kmh 30.30 in1026.1 mb 0.00 in0.0 mm 0.00 in/hr0.0 mm/hr 0.00 in0.0 mm
05:02 AM 18.5°F-7.5°C 12.7°F-10.7°C 78% 1.3 mph E2.1 kmh E 6.3 mph10.1 kmh 30.32 in1026.8 mb 0.00 in0.0 mm 0.00 in/hr0.0 mm/hr 0.00 in0.0 mm
04:57 AM 18.4°F-7.6°C 12.5°F-10.8°C 78% 2.0 mph ENE3.2 kmh ENE 6.3 mph10.1 kmh 30.32 in1026.8 mb 0.00 in0.0 mm 0.00 in/hr0.0 mm/hr 0.00 in0.0 mm
04:52 AM 18.4°F-7.6°C 12.5°F-10.8°C 78% 2.5 mph SE4.0 kmh SE 5.6 mph9.0 kmh 30.32 in1026.8 mb 0.00 in0.0 mm 0.00 in/hr0.0 mm/hr 0.00 in0.0 mm
04:47 AM 18.2°F-7.7°C 12.3°F-10.9°C 78% 0.9 mph ENE1.4 kmh ENE 4.3 mph6.9 kmh 30.32 in1026.8 mb 0.00 in0.0 mm 0.00 in/hr0.0 mm/hr 0.00 in0.0 mm
04:42 AM 18.0°F-7.8°C 12.5°F-10.8°C 79% 1.6 mph E2.6 kmh E 4.7 mph7.6 kmh 30.33 in1027.1 mb 0.00 in0.0 mm 0.00 in/hr0.0 mm/hr 0.00 in0.0 mm
04:37 AM 17.8°F-7.9°C 12.1°F-11.1°C 78% 2.8 mph ESE4.5 kmh ESE 4.7 mph7.6 kmh 30.34 in1027.4 mb 0.00 in0.0 mm 0.00 in/hr0.0 mm/hr 0.00 in0.0 mm
04:32 AM 17.6°F-8.0°C 12.2°F-11.0°C 79% 1.3 mph E2.1 kmh E 5.1 mph8.2 kmh 30.35 in1027.8 mb 0.00 in0.0 mm 0.00 in/hr0.0 mm/hr 0.00 in0.0 mm
04:27 AM 17.6°F-8.0°C 12.2°F-11.0°C 79% 0.8 mph E1.3 kmh E 5.1 mph8.2 kmh 30.34 in1027.4 mb 0.00 in0.0 mm 0.00 in/hr0.0 mm/hr 0.00 in0.0 mm
04:22 AM 17.5°F-8.1°C 12.0°F-11.1°C 79% 2.1 mph ESE3.4 kmh ESE 4.7 mph7.6 kmh 30.34 in1027.4 mb 0.00 in0.0 mm 0.00 in/hr0.0 mm/hr 0.00 in0.0 mm
04:17 AM 17.3°F-8.2°C 11.8°F-11.2°C 79% 2.0 mph NE3.2 kmh NE 4.5 mph7.2 kmh 30.34 in1027.4 mb 0.00 in0.0 mm 0.00 in/hr0.0 mm/hr 0.00 in0.0 mm
04:12 AM 17.1°F-8.3°C 12.0°F-11.1°C 80% 2.1 mph NE3.4 kmh NE 4.0 mph6.4 kmh 30.34 in1027.4 mb 0.00 in0.0 mm 0.00 in/hr0.0 mm/hr 0.00 in0.0 mm
04:07 AM 16.9°F-8.4°C 11.8°F-11.2°C 80% 1.4 mph SE2.3 kmh SE 3.4 mph5.5 kmh 30.35 in1027.8 mb 0.00 in0.0 mm 0.00 in/hr0.0 mm/hr 0.00 in0.0 mm
04:02 AM 16.9°F-8.4°C 11.8°F-11.2°C 80% 1.4 mph ENE2.3 kmh ENE 3.8 mph6.1 kmh 30.35 in1027.8 mb 0.00 in0.0 mm 0.00 in/hr0.0 mm/hr 0.00 in0.0 mm
03:57 AM 16.7°F-8.5°C 11.6°F-11.3°C 80% 1.6 mph SE2.6 kmh SE 3.8 mph6.1 kmh 30.35 in1027.8 mb 0.00 in0.0 mm 0.00 in/hr0.0 mm/hr 0.00 in0.0 mm
03:52 AM 16.6°F-8.6°C 11.4°F-11.4°C 80% 1.4 mph E2.3 kmh E 4.0 mph6.4 kmh 30.36 in1028.1 mb 0.00 in0.0 mm 0.00 in/hr0.0 mm/hr 0.00 in0.0 mm
03:47 AM 16.4°F-8.7°C 11.3°F-11.5°C 80% 2.1 mph ESE3.4 kmh ESE 4.0 mph6.4 kmh 30.36 in1028.1 mb 0.00 in0.0 mm 0.00 in/hr0.0 mm/hr 0.00 in0.0 mm
03:42 AM 16.2°F-8.8°C 11.2°F-11.6°C 80% 1.2 mph NE1.9 kmh NE 4.7 mph7.6 kmh 30.36 in1028.1 mb 0.00 in0.0 mm 0.00 in/hr0.0 mm/hr 0.00 in0.0 mm
03:37 AM 16.2°F-8.8°C 11.2°F-11.6°C 80% 2.0 mph ENE3.2 kmh ENE 4.7 mph7.6 kmh 30.36 in1028.1 mb 0.00 in0.0 mm 0.00 in/hr0.0 mm/hr 0.00 in0.0 mm
03:32 AM 16.0°F-8.9°C 11.3°F-11.5°C 81% 1.7 mph E2.7 kmh E 4.0 mph6.4 kmh 30.36 in1028.1 mb 0.00 in0.0 mm 0.00 in/hr0.0 mm/hr 0.00 in0.0 mm
03:27 AM 15.8°F-9.0°C 11.4°F-11.4°C 82% 1.7 mph E2.7 kmh E 2.7 mph4.3 kmh 30.37 in1028.4 mb 0.00 in0.0 mm 0.00 in/hr0.0 mm/hr 0.00 in0.0 mm
03:22 AM 15.7°F-9.1°C 11.3°F-11.5°C 83% 0.9 mph NE1.4 kmh NE 3.4 mph5.5 kmh 30.36 in1028.1 mb 0.00 in0.0 mm 0.00 in/hr0.0 mm/hr 0.00 in0.0 mm
03:17 AM 15.5°F-9.2°C 11.3°F-11.5°C 83% 2.4 mph E3.9 kmh E 4.0 mph6.4 kmh 30.36 in1028.1 mb 0.00 in0.0 mm 0.00 in/hr0.0 mm/hr 0.00 in0.0 mm
03:12 AM 14.8°F-9.6°C 10.8°F-11.8°C 84% 1.7 mph E2.7 kmh E 4.0 mph6.4 kmh 30.35 in1027.8 mb 0.00 in0.0 mm 0.00 in/hr0.0 mm/hr 0.00 in0.0 mm
03:07 AM 14.2°F-9.9°C 10.5°F-11.9°C 85% 1.1 mph E1.8 kmh E 1.8 mph2.9 kmh 30.35 in1027.8 mb 0.00 in0.0 mm 0.00 in/hr0.0 mm/hr 0.00 in0.0 mm
03:02 AM 13.9°F-10.1°C 10.2°F-12.1°C 85% 0.8 mph N1.3 kmh N 1.8 mph2.9 kmh 30.35 in1027.8 mb 0.00 in0.0 mm 0.00 in/hr0.0 mm/hr 0.00 in0.0 mm
02:57 AM 13.3°F-10.4°C 9.6°F-12.4°C 85% 0.4 mph NE0.6 kmh NE 0.9 mph1.4 kmh 30.35 in1027.8 mb 0.00 in0.0 mm 0.00 in/hr0.0 mm/hr 0.00 in0.0 mm
02:52 AM 13.0°F-10.6°C 9.3°F-12.6°C 85% 0.3 mph ENE0.5 kmh ENE 0.9 mph1.4 kmh 30.35 in1027.8 mb 0.00 in0.0 mm 0.00 in/hr0.0 mm/hr 0.00 in0.0 mm
02:47 AM 12.6°F-10.8°C 8.9°F-12.8°C 85% 0.4 mph NE0.6 kmh NE 0.9 mph1.4 kmh 30.35 in1027.8 mb 0.00 in0.0 mm 0.00 in/hr0.0 mm/hr 0.00 in0.0 mm
02:42 AM 12.2°F-11.0°C 8.6°F-13.0°C 85% 0.4 mph ESE0.6 kmh ESE 1.1 mph1.8 kmh 30.35 in1027.8 mb 0.00 in0.0 mm 0.00 in/hr0.0 mm/hr 0.00 in0.0 mm
02:37 AM 11.9°F-11.2°C 8.2°F-13.2°C 85% 0.4 mph E0.6 kmh E 1.1 mph1.8 kmh 30.36 in1028.1 mb 0.00 in0.0 mm 0.00 in/hr0.0 mm/hr 0.00 in0.0 mm
02:32 AM 11.7°F-11.3°C 8.0°F-13.3°C 85% 0.3 mph ESE0.5 kmh ESE 0.7 mph1.1 kmh 30.37 in1028.4 mb 0.00 in0.0 mm 0.00 in/hr0.0 mm/hr 0.00 in0.0 mm
02:27 AM 11.2°F-11.6°C 7.5°F-13.6°C 85% 0.5 mph ENE0.8 kmh ENE 0.7 mph1.1 kmh 30.37 in1028.4 mb 0.00 in0.0 mm 0.00 in/hr0.0 mm/hr 0.00 in0.0 mm
02:22 AM 10.8°F-11.8°C 6.8°F-14.0°C 84% Calm Calm 0.7 mph1.1 kmh 30.37 in1028.4 mb 0.00 in0.0 mm 0.00 in/hr0.0 mm/hr 0.00 in0.0 mm
02:17 AM 10.4°F-12.0°C 6.5°F-14.2°C 84% Calm Calm 0.4 mph0.6 kmh 30.38 in1028.8 mb 0.00 in0.0 mm 0.00 in/hr0.0 mm/hr 0.00 in0.0 mm
02:12 AM 10.3°F-12.1°C 6.3°F-14.3°C 84% 0.2 mph NNW0.3 kmh NNW 0.4 mph0.6 kmh 30.38 in1028.8 mb 0.00 in0.0 mm 0.00 in/hr0.0 mm/hr 0.00 in0.0 mm
02:07 AM 9.9°F-12.3°C 5.9°F-14.5°C 84% Calm Calm 0.4 mph0.6 kmh 30.38 in1028.8 mb 0.00 in0.0 mm 0.00 in/hr0.0 mm/hr 0.00 in0.0 mm
02:02 AM 9.7°F-12.4°C 5.8°F-14.6°C 84% 0.4 mph NNW0.6 kmh NNW 0.4 mph0.6 kmh 30.38 in1028.8 mb 0.00 in0.0 mm 0.00 in/hr0.0 mm/hr 0.00 in0.0 mm
01:57 AM 9.0°F-12.8°C 5.1°F-14.9°C 84% Calm Calm 0.2 mph0.3 kmh 30.38 in1028.8 mb 0.00 in0.0 mm 0.00 in/hr0.0 mm/hr 0.00 in0.0 mm
01:52 AM 9.0°F-12.8°C 5.1°F-14.9°C 84% Calm Calm 1.1 mph1.8 kmh 30.37 in1028.4 mb 0.00 in0.0 mm 0.00 in/hr0.0 mm/hr 0.00 in0.0 mm
01:47 AM 8.8°F-12.9°C 5.0°F-15.0°C 84% 0.2 mph 0.3 kmh 1.1 mph1.8 kmh 30.37 in1028.4 mb 0.00 in0.0 mm 0.00 in/hr0.0 mm/hr 0.00 in0.0 mm
01:42 AM 8.5°F-13.1°C 4.3°F-15.4°C 83% 0.4 mph 0.6 kmh 1.1 mph1.8 kmh 30.37 in1028.4 mb 0.00 in0.0 mm 0.00 in/hr0.0 mm/hr 0.00 in0.0 mm
01:37 AM 7.9°F-13.4°C 3.8°F-15.7°C 83% Calm Calm 1.1 mph1.8 kmh 30.38 in1028.8 mb 0.00 in0.0 mm 0.00 in/hr0.0 mm/hr 0.00 in0.0 mm
01:32 AM 7.6°F-13.6°C 3.4°F-15.9°C 83% 0.5 mph S0.8 kmh S 0.7 mph1.1 kmh 30.39 in1029.1 mb 0.00 in0.0 mm 0.00 in/hr0.0 mm/hr 0.00 in0.0 mm
01:27 AM 7.4°F-13.7°C 3.2°F-16.0°C 83% 0.3 mph 0.5 kmh 0.7 mph1.1 kmh 30.38 in1028.8 mb 0.00 in0.0 mm 0.00 in/hr0.0 mm/hr 0.00 in0.0 mm
01:22 AM 7.2°F-13.8°C 3.1°F-16.1°C 83% Calm Calm -- 30.38 in1028.8 mb 0.00 in0.0 mm 0.00 in/hr0.0 mm/hr 0.00 in0.0 mm
01:17 AM 6.8°F-14.0°C 2.7°F-16.3°C 83% Calm Calm 0.7 mph1.1 kmh 30.39 in1029.1 mb 0.00 in0.0 mm 0.00 in/hr0.0 mm/hr 0.00 in0.0 mm
01:12 AM 6.7°F-14.1°C 2.5°F-16.4°C 83% Calm Calm 2.0 mph3.2 kmh 30.39 in1029.1 mb 0.00 in0.0 mm 0.00 in/hr0.0 mm/hr 0.00 in0.0 mm
01:07 AM 6.5°F-14.2°C 2.3°F-16.5°C 83% 0.7 mph SW1.1 kmh SW 2.2 mph3.5 kmh 30.39 in1029.1 mb 0.00 in0.0 mm 0.00 in/hr0.0 mm/hr 0.00 in0.0 mm
01:02 AM 6.1°F-14.4°C 2.0°F-16.7°C 83% 0.9 mph SW1.4 kmh SW 2.2 mph3.5 kmh 30.38 in1028.8 mb 0.00 in0.0 mm 0.00 in/hr0.0 mm/hr 0.00 in0.0 mm
12:57 AM 6.1°F-14.4°C 2.0°F-16.7°C 83% 0.9 mph S1.4 kmh S 2.5 mph4.0 kmh 30.39 in1029.1 mb 0.00 in0.0 mm 0.00 in/hr0.0 mm/hr 0.00 in0.0 mm
12:52 AM 5.9°F-14.5°C 1.8°F-16.8°C 83% 2.0 mph SW3.2 kmh SW 2.5 mph4.0 kmh 30.39 in1029.1 mb 0.00 in0.0 mm 0.00 in/hr0.0 mm/hr 0.00 in0.0 mm
12:47 AM 5.8°F-14.6°C 1.5°F-16.9°C 82% 1.2 mph SW1.9 kmh SW 2.5 mph4.0 kmh 30.39 in1029.1 mb 0.00 in0.0 mm 0.00 in/hr0.0 mm/hr 0.00 in0.0 mm
12:46 AM 5.8°F-14.6°C 1.5°F-16.9°C 82% 1.2 mph SW1.9 kmh SW 2.5 mph4.0 kmh 30.39 in1029.1 mb 0.00 in0.0 mm 0.00 in/hr0.0 mm/hr 0.00 in0.0 mm
12:42 AM 5.6°F-14.7°C 0.7°F-17.4°C 80% 0.3 mph SSW0.5 kmh SSW 0.4 mph0.6 kmh 30.38 in1028.8 mb 0.00 in0.0 mm 0.00 in/hr0.0 mm/hr 0.00 in0.0 mm
12:41 AM 5.4°F-14.8°C 0.5°F-17.5°C 80% 0.2 mph SSW0.3 kmh SSW 0.4 mph0.6 kmh 30.38 in1028.8 mb 0.00 in0.0 mm 0.00 in/hr0.0 mm/hr 0.00 in0.0 mm
12:37 AM 5.4°F-14.8°C 0.5°F-17.5°C 80% 0.4 mph SSW0.6 kmh SSW 0.4 mph0.6 kmh 30.38 in1028.8 mb 0.00 in0.0 mm 0.00 in/hr0.0 mm/hr 0.00 in0.0 mm
12:36 AM 5.4°F-14.8°C 0.5°F-17.5°C 80% 0.4 mph SSW0.6 kmh SSW 0.4 mph0.6 kmh 30.38 in1028.8 mb 0.00 in0.0 mm 0.00 in/hr0.0 mm/hr 0.00 in0.0 mm
12:32 AM 5.4°F-14.8°C 0.5°F-17.5°C 80% Calm Calm 0.2 mph0.3 kmh 30.38 in1028.8 mb 0.00 in0.0 mm 0.00 in/hr0.0 mm/hr 0.00 in0.0 mm
12:27 AM 5.6°F-14.7°C 0.7°F-17.4°C 80% Calm Calm 0.2 mph0.3 kmh 30.38 in1028.8 mb 0.00 in0.0 mm 0.00 in/hr0.0 mm/hr 0.00 in0.0 mm
12:26 AM 5.6°F-14.7°C 0.7°F-17.4°C 80% Calm Calm 0.9 mph1.4 kmh 30.38 in1028.8 mb 0.00 in0.0 mm 0.00 in/hr0.0 mm/hr 0.00 in0.0 mm
12:22 AM 5.6°F-14.7°C 0.7°F-17.4°C 80% 0.2 mph SW0.3 kmh SW 0.9 mph1.4 kmh 30.39 in1029.1 mb 0.00 in0.0 mm 0.00 in/hr0.0 mm/hr 0.00 in0.0 mm
12:21 AM 5.6°F-14.7°C 0.7°F-17.4°C 80% 0.2 mph SW0.3 kmh SW 0.9 mph1.4 kmh 30.39 in1029.1 mb 0.00 in0.0 mm 0.00 in/hr0.0 mm/hr 0.00 in0.0 mm
12:17 AM 5.6°F-14.7°C 0.7°F-17.4°C 80% 0.8 mph SW1.3 kmh SW 0.9 mph1.4 kmh 30.39 in1029.1 mb 0.00 in0.0 mm 0.00 in/hr0.0 mm/hr 0.00 in0.0 mm
12:16 AM 5.6°F-14.7°C 0.7°F-17.4°C 80% 0.8 mph SW1.3 kmh SW 0.9 mph1.4 kmh 30.39 in1029.1 mb 0.00 in0.0 mm 0.00 in/hr0.0 mm/hr 0.00 in0.0 mm
12:12 AM 5.6°F-14.7°C 0.7°F-17.4°C 80% 0.2 mph SSW0.3 kmh SSW 1.3 mph2.1 kmh 30.39 in1029.1 mb 0.00 in0.0 mm 0.00 in/hr0.0 mm/hr 0.00 in0.0 mm
12:11 AM 5.6°F-14.7°C 0.7°F-17.4°C 80% 0.2 mph SSW0.3 kmh SSW 1.3 mph2.1 kmh 30.39 in1029.1 mb 0.00 in0.0 mm 0.00 in/hr0.0 mm/hr 0.00 in0.0 mm
12:07 AM 5.6°F-14.7°C 0.7°F-17.4°C 80% 0.8 mph SW1.3 kmh SW 1.3 mph2.1 kmh 30.40 in1029.5 mb 0.00 in0.0 mm 0.00 in/hr0.0 mm/hr 0.00 in0.0 mm
12:06 AM 5.6°F-14.7°C 1.0°F-17.2°C 81% 0.8 mph SW1.3 kmh SW 1.3 mph2.1 kmh 30.40 in1029.5 mb 0.00 in0.0 mm 0.00 in/hr0.0 mm/hr 0.00 in0.0 mm
12:02 AM 5.8°F-14.6°C 0.9°F-17.3°C 80% 0.4 mph S0.6 kmh S 1.1 mph1.8 kmh 30.40 in1029.5 mb 0.00 in0.0 mm 0.00 in/hr0.0 mm/hr 0.00 in0.0 mm
12:01 AM 5.8°F-14.6°C 0.9°F-17.3°C 80% 0.4 mph S0.6 kmh S 1.1 mph1.8 kmh 30.40 in1029.5 mb 0.00 in0.0 mm 0.00 in/hr0.0 mm/hr 0.00 in0.0 mm